createdAt,value
2022-12-20T00:00:05.291Z,4.30
2022-12-20T00:01:13.139Z,4.30
2022-12-20T00:02:15.642Z,4.30
2022-12-20T00:03:18.355Z,4.30
2022-12-20T00:04:20.673Z,4.30
2022-12-20T00:05:23.033Z,4.30
2022-12-20T00:06:26.250Z,4.30
2022-12-20T00:07:28.567Z,4.30
2022-12-20T00:08:31.298Z,4.30
2022-12-20T00:09:33.577Z,4.30
2022-12-20T00:10:37.364Z,4.30
2022-12-20T00:11:41.146Z,4.40
2022-12-20T00:12:43.421Z,4.30
2022-12-20T00:13:47.172Z,4.40
2022-12-20T00:14:49.616Z,4.30
2022-12-20T00:16:02.906Z,4.30
2022-12-20T00:17:05.163Z,4.30
2022-12-20T00:18:07.535Z,4.40
2022-12-20T00:19:11.683Z,4.40
2022-12-20T00:20:13.992Z,4.40
2022-12-20T00:21:16.420Z,4.40
2022-12-20T00:22:18.772Z,4.40
2022-12-20T00:23:21.174Z,4.40
2022-12-20T00:24:26.251Z,4.40
2022-12-20T00:25:29.191Z,4.50
2022-12-20T00:26:34.065Z,4.40
2022-12-20T00:27:36.327Z,4.40
2022-12-20T00:28:39.685Z,4.50
2022-12-20T00:29:50.836Z,4.50
2022-12-20T00:30:56.346Z,4.50
2022-12-20T00:31:58.791Z,4.50
2022-12-20T00:33:01.065Z,4.50
2022-12-20T00:34:03.502Z,4.50
2022-12-20T00:35:06.179Z,4.50
2022-12-20T00:36:09.141Z,4.50
2022-12-20T00:37:11.771Z,4.50
2022-12-20T00:38:14.426Z,4.50
2022-12-20T00:39:16.850Z,4.50
2022-12-20T00:40:19.153Z,4.50
2022-12-20T00:41:25.172Z,4.50
2022-12-20T00:42:27.621Z,4.50
2022-12-20T00:43:30.721Z,4.50
2022-12-20T00:44:33.109Z,4.50
2022-12-20T00:45:35.682Z,4.50
2022-12-20T00:46:38.042Z,4.50
2022-12-20T00:47:40.298Z,4.50
2022-12-20T00:48:42.687Z,4.50
2022-12-20T00:49:44.959Z,4.50
2022-12-20T00:50:47.549Z,4.50
2022-12-20T00:51:49.854Z,4.50
2022-12-20T00:52:52.166Z,4.50
2022-12-20T00:53:54.673Z,4.50
2022-12-20T00:54:57.196Z,4.50
2022-12-20T00:56:00.279Z,4.50
2022-12-20T00:57:03.496Z,4.50
2022-12-20T00:58:06.787Z,4.50
2022-12-20T00:59:09.210Z,4.50
2022-12-20T01:00:11.878Z,4.50
2022-12-20T01:01:25.288Z,4.50
2022-12-20T01:02:27.895Z,4.50
2022-12-20T01:03:30.491Z,4.50
2022-12-20T01:04:32.898Z,4.50
2022-12-20T01:05:35.270Z,4.50
2022-12-20T01:06:37.636Z,4.50
2022-12-20T01:07:39.955Z,4.50
2022-12-20T01:08:42.660Z,4.50
2022-12-20T01:09:44.946Z,4.50
2022-12-20T01:10:47.985Z,4.50
2022-12-20T01:11:50.438Z,4.50
2022-12-20T01:12:52.969Z,4.50
2022-12-20T01:13:58.436Z,4.50
2022-12-20T01:15:00.778Z,4.50
2022-12-20T01:16:12.109Z,4.50
2022-12-20T01:17:15.401Z,4.50
2022-12-20T01:18:17.770Z,4.50
2022-12-20T01:19:20.063Z,4.50
2022-12-20T01:20:22.424Z,4.50
2022-12-20T01:21:27.111Z,4.50
2022-12-20T01:22:29.451Z,4.50
2022-12-20T01:23:32.110Z,4.50
2022-12-20T01:24:34.384Z,4.50
2022-12-20T01:25:36.684Z,4.50
2022-12-20T01:26:39.027Z,4.50
2022-12-20T01:27:41.362Z,4.50
2022-12-20T01:28:45.375Z,4.50
2022-12-20T01:29:47.869Z,4.50
2022-12-20T01:30:50.432Z,4.40
2022-12-20T01:31:54.072Z,4.40
2022-12-20T01:32:56.417Z,4.40
2022-12-20T01:33:59.611Z,4.40
2022-12-20T01:35:02.212Z,4.40
2022-12-20T01:36:07.884Z,4.40
2022-12-20T01:37:10.459Z,4.30
2022-12-20T01:38:13.101Z,4.40
2022-12-20T01:39:16.788Z,4.30
2022-12-20T01:40:19.682Z,4.30
2022-12-20T01:41:23.220Z,4.30
2022-12-20T01:42:25.637Z,4.30
2022-12-20T01:43:48.563Z,4.30
2022-12-20T01:44:55.239Z,4.30
2022-12-20T01:45:57.615Z,4.30
2022-12-20T01:46:59.926Z,4.30
2022-12-20T01:48:02.295Z,4.30
2022-12-20T01:49:22.497Z,4.30
2022-12-20T01:50:25.540Z,4.30
2022-12-20T01:51:30.695Z,4.30
2022-12-20T01:52:43.414Z,4.30
2022-12-20T01:53:47.440Z,4.30
2022-12-20T01:54:57.945Z,4.20
2022-12-20T01:56:03.965Z,4.20
2022-12-20T01:57:12.674Z,4.20
2022-12-20T01:58:18.163Z,4.20
2022-12-20T01:59:21.115Z,4.20
2022-12-20T02:00:24.148Z,4.20
2022-12-20T02:01:26.595Z,4.10
2022-12-20T02:02:32.034Z,4.20
2022-12-20T02:03:34.463Z,4.10
2022-12-20T02:04:36.975Z,4.10
2022-12-20T02:05:42.813Z,4.10
2022-12-20T02:06:45.086Z,4.10
2022-12-20T02:07:51.751Z,4.10
2022-12-20T02:08:58.650Z,4.10
2022-12-20T02:10:03.023Z,4.10
2022-12-20T02:11:32.710Z,4.10
2022-12-20T02:12:42.659Z,4.20
2022-12-20T02:14:10.495Z,4.20
2022-12-20T02:15:33.886Z,4.20
2022-12-20T02:16:57.602Z,4.20
2022-12-20T02:18:26.892Z,4.20
2022-12-20T02:19:48.161Z,4.20
2022-12-20T02:21:12.970Z,4.20
2022-12-20T02:22:26.300Z,4.20
2022-12-20T02:23:42.977Z,4.20
2022-12-20T02:25:15.086Z,4.20
2022-12-20T02:26:32.853Z,4.20
2022-12-20T02:27:57.619Z,4.10
2022-12-20T02:29:20.202Z,4.10
2022-12-20T02:30:26.454Z,4.10
2022-12-20T02:31:49.017Z,4.00
2022-12-20T02:33:03.992Z,4.00
2022-12-20T02:34:08.515Z,4.00
2022-12-20T02:35:15.020Z,4.00
2022-12-20T02:36:18.641Z,4.00
2022-12-20T02:37:22.670Z,4.10
2022-12-20T02:38:29.182Z,4.10
2022-12-20T02:39:33.802Z,4.00
2022-12-20T02:40:41.425Z,4.00
2022-12-20T02:41:52.997Z,4.10
2022-12-20T02:43:01.615Z,4.00
2022-12-20T02:44:30.259Z,4.10
2022-12-20T02:45:35.980Z,4.10
2022-12-20T02:46:39.861Z,4.10
2022-12-20T02:47:54.608Z,4.10
2022-12-20T02:49:03.084Z,4.20
2022-12-20T02:50:08.127Z,4.10
2022-12-20T02:51:12.122Z,4.20
2022-12-20T02:52:15.328Z,4.20
2022-12-20T02:53:18.483Z,4.20
2022-12-20T02:54:21.906Z,4.30
2022-12-20T02:55:33.844Z,4.30
2022-12-20T02:56:43.028Z,4.30
2022-12-20T02:58:02.537Z,4.30
2022-12-20T02:59:10.753Z,4.40
2022-12-20T03:00:18.850Z,4.40
2022-12-20T03:01:36.050Z,4.40
2022-12-20T03:02:58.986Z,4.40
2022-12-20T03:04:02.038Z,4.40
2022-12-20T03:05:05.411Z,4.40
2022-12-20T03:06:08.175Z,4.50
2022-12-20T03:07:13.361Z,4.50
2022-12-20T03:08:16.569Z,4.50
2022-12-20T03:09:18.867Z,4.50
2022-12-20T03:10:23.296Z,4.60
2022-12-20T03:11:26.197Z,4.60
2022-12-20T03:12:28.643Z,4.60
2022-12-20T03:13:31.170Z,4.60
2022-12-20T03:14:39.099Z,4.60
2022-12-20T03:15:43.687Z,4.60
2022-12-20T03:16:46.086Z,4.60
2022-12-20T03:17:48.484Z,4.60
2022-12-20T03:18:50.803Z,4.60
2022-12-20T03:19:53.151Z,4.60
2022-12-20T03:20:55.485Z,4.60
2022-12-20T03:21:58.251Z,4.60
2022-12-20T03:23:00.544Z,4.50
2022-12-20T03:24:02.946Z,4.50
2022-12-20T03:25:06.399Z,4.50
2022-12-20T03:26:09.280Z,4.40
2022-12-20T03:27:17.193Z,4.40
2022-12-20T03:28:19.501Z,4.30
2022-12-20T03:29:21.861Z,4.30
2022-12-20T03:30:24.658Z,4.30
2022-12-20T03:31:27.112Z,4.30
2022-12-20T03:32:30.735Z,4.20
2022-12-20T03:33:33.053Z,4.20
2022-12-20T03:34:40.731Z,4.20
2022-12-20T03:35:43.144Z,4.20
2022-12-20T03:36:46.024Z,4.20
2022-12-20T03:37:48.481Z,4.20
2022-12-20T03:38:51.696Z,4.20
2022-12-20T03:39:54.074Z,4.20
2022-12-20T03:40:56.513Z,4.20
2022-12-20T03:41:58.912Z,4.20
2022-12-20T03:43:01.271Z,4.20
2022-12-20T03:44:03.715Z,4.20
2022-12-20T03:45:06.661Z,4.20
2022-12-20T03:46:09.619Z,4.20
2022-12-20T03:47:14.237Z,4.30
2022-12-20T03:48:16.598Z,4.30
2022-12-20T03:49:19.131Z,4.30
2022-12-20T03:50:25.279Z,4.30
2022-12-20T03:51:27.558Z,4.30
2022-12-20T03:52:29.938Z,4.40
2022-12-20T03:53:32.564Z,4.30
2022-12-20T03:54:34.946Z,4.40
2022-12-20T03:55:45.623Z,4.40
2022-12-20T03:56:49.049Z,4.40
2022-12-20T03:57:51.350Z,4.40
2022-12-20T03:59:08.755Z,4.40
2022-12-20T04:00:12.725Z,4.40
2022-12-20T04:01:23.916Z,4.40
2022-12-20T04:02:27.184Z,4.40
2022-12-20T04:03:30.193Z,4.50
2022-12-20T04:04:32.675Z,4.50
2022-12-20T04:05:35.057Z,4.50
2022-12-20T04:06:37.375Z,4.60
2022-12-20T04:07:39.881Z,4.60
2022-12-20T04:08:42.656Z,4.60
2022-12-20T04:09:46.093Z,4.60
2022-12-20T04:11:08.468Z,4.60
2022-12-20T04:12:12.450Z,4.70
2022-12-20T04:13:15.282Z,4.70
2022-12-20T04:14:18.545Z,4.70
2022-12-20T04:15:20.967Z,4.70
2022-12-20T04:16:28.368Z,4.80
2022-12-20T04:17:31.262Z,4.80
2022-12-20T04:18:33.629Z,4.80
2022-12-20T04:19:36.883Z,4.70
2022-12-20T04:20:41.377Z,4.80
2022-12-20T04:21:52.377Z,4.80
2022-12-20T04:22:55.872Z,4.80
2022-12-20T04:23:59.617Z,4.80
2022-12-20T04:25:10.992Z,4.80
2022-12-20T04:26:15.202Z,4.80
2022-12-20T04:27:17.768Z,4.80
2022-12-20T04:28:20.121Z,4.80
2022-12-20T04:29:22.960Z,4.80
2022-12-20T04:30:26.002Z,4.80
2022-12-20T04:31:28.554Z,4.80
2022-12-20T04:32:31.530Z,4.80
2022-12-20T04:33:35.977Z,4.80
2022-12-20T04:34:38.556Z,4.80
2022-12-20T04:35:41.065Z,4.80
2022-12-20T04:36:43.694Z,4.80
2022-12-20T04:37:52.140Z,4.80
2022-12-20T04:38:55.073Z,4.90
2022-12-20T04:39:58.423Z,4.90
2022-12-20T04:41:09.207Z,4.90
2022-12-20T04:42:21.401Z,4.90
2022-12-20T04:43:25.245Z,4.90
2022-12-20T04:44:30.579Z,4.90
2022-12-20T04:45:34.464Z,4.80
2022-12-20T04:46:37.289Z,4.90
2022-12-20T04:47:42.259Z,4.80
2022-12-20T04:48:56.959Z,4.80
2022-12-20T04:50:00.876Z,4.80
2022-12-20T04:51:04.434Z,4.80
2022-12-20T04:52:25.733Z,4.80
2022-12-20T04:53:46.709Z,4.70
2022-12-20T04:54:54.051Z,4.80
2022-12-20T04:56:02.293Z,4.70
2022-12-20T04:57:04.621Z,4.70
2022-12-20T04:58:08.121Z,4.70
2022-12-20T04:59:12.814Z,4.70
2022-12-20T05:00:18.054Z,4.60
2022-12-20T05:01:26.350Z,4.70
2022-12-20T05:02:29.797Z,4.70
2022-12-20T05:03:38.731Z,4.60
2022-12-20T05:04:41.441Z,4.70
2022-12-20T05:05:43.896Z,4.70
2022-12-20T05:06:46.225Z,4.60
2022-12-20T05:07:50.610Z,4.60
2022-12-20T05:08:55.348Z,4.60
2022-12-20T05:09:57.711Z,4.60
2022-12-20T05:11:00.887Z,4.60
2022-12-20T05:12:04.194Z,4.60
2022-12-20T05:13:09.358Z,4.70
2022-12-20T05:14:16.285Z,4.70
2022-12-20T05:15:18.779Z,4.70
2022-12-20T05:16:21.249Z,4.80
2022-12-20T05:17:23.625Z,4.80
2022-12-20T05:18:28.628Z,4.80
2022-12-20T05:19:36.103Z,4.80
2022-12-20T05:20:38.405Z,4.80
2022-12-20T05:21:59.601Z,4.80
2022-12-20T05:23:21.063Z,4.80
2022-12-20T05:24:45.752Z,4.80
2022-12-20T05:26:18.805Z,4.80
2022-12-20T05:27:22.175Z,4.80
2022-12-20T05:28:24.785Z,4.70
2022-12-20T05:29:27.396Z,4.80
2022-12-20T05:30:30.133Z,4.80
2022-12-20T05:31:33.590Z,4.80
2022-12-20T05:32:36.569Z,4.80
2022-12-20T05:33:38.921Z,4.80
2022-12-20T05:34:41.236Z,4.80
2022-12-20T05:35:43.620Z,4.80
2022-12-20T05:36:48.825Z,4.90
2022-12-20T05:37:51.268Z,4.90
2022-12-20T05:39:03.434Z,4.90
2022-12-20T05:40:06.937Z,4.90
2022-12-20T05:41:09.544Z,4.90
2022-12-20T05:42:12.321Z,4.90
2022-12-20T05:43:15.654Z,4.90
2022-12-20T05:44:22.252Z,5.00
2022-12-20T05:45:28.480Z,5.00
2022-12-20T05:46:37.035Z,5.00
2022-12-20T05:47:45.045Z,5.10
2022-12-20T05:48:48.714Z,5.10
2022-12-20T05:49:51.034Z,5.10
2022-12-20T05:50:53.291Z,5.10
2022-12-20T05:52:02.704Z,5.10
2022-12-20T05:53:11.397Z,5.10
2022-12-20T05:54:17.998Z,5.10
2022-12-20T05:55:26.793Z,5.20
2022-12-20T05:56:29.147Z,5.10
2022-12-20T05:57:31.952Z,5.20
2022-12-20T05:58:34.434Z,5.20
2022-12-20T05:59:39.427Z,5.20
2022-12-20T06:00:45.590Z,5.20
2022-12-20T06:01:47.962Z,5.20
2022-12-20T06:02:50.845Z,5.20
2022-12-20T06:03:53.294Z,5.20
2022-12-20T06:04:57.867Z,5.20
2022-12-20T06:06:00.150Z,5.20
2022-12-20T06:07:07.387Z,5.20
2022-12-20T06:08:10.260Z,5.30
2022-12-20T06:09:12.796Z,5.30
2022-12-20T06:10:23.800Z,5.30
2022-12-20T06:11:30.810Z,5.30
2022-12-20T06:12:40.723Z,5.30
2022-12-20T06:13:43.033Z,5.30
2022-12-20T06:14:45.407Z,5.30
2022-12-20T06:15:48.747Z,5.30
2022-12-20T06:16:51.544Z,5.30
2022-12-20T06:17:54.911Z,5.30
2022-12-20T06:18:57.207Z,5.40
2022-12-20T06:19:59.575Z,5.30
2022-12-20T06:21:02.153Z,5.40
2022-12-20T06:22:04.602Z,5.40
2022-12-20T06:23:17.191Z,5.40
2022-12-20T06:24:27.444Z,5.40
2022-12-20T06:25:30.417Z,5.40
2022-12-20T06:26:36.428Z,5.40
2022-12-20T06:27:41.470Z,5.40
2022-12-20T06:28:52.774Z,5.50
2022-12-20T06:30:04.549Z,5.40
2022-12-20T06:31:16.533Z,5.50
2022-12-20T06:32:22.886Z,5.50
2022-12-20T06:33:26.366Z,5.50
2022-12-20T06:34:29.271Z,5.50
2022-12-20T06:35:31.820Z,5.50
2022-12-20T06:36:35.066Z,5.50
2022-12-20T06:37:37.598Z,5.50
2022-12-20T06:38:40.135Z,5.50
2022-12-20T06:39:42.706Z,5.50
2022-12-20T06:40:45.047Z,5.50
2022-12-20T06:41:47.338Z,5.60
2022-12-20T06:42:50.544Z,5.60
2022-12-20T06:43:54.736Z,5.60
2022-12-20T06:44:57.243Z,5.60
2022-12-20T06:45:59.616Z,5.60
2022-12-20T06:47:01.995Z,5.60
2022-12-20T06:48:04.861Z,5.60
2022-12-20T06:49:10.061Z,5.60
2022-12-20T06:50:12.785Z,5.70
2022-12-20T06:51:17.458Z,5.70
2022-12-20T06:52:20.014Z,5.70
2022-12-20T06:53:25.267Z,5.70
2022-12-20T06:54:27.580Z,5.70
2022-12-20T06:55:29.991Z,5.70
2022-12-20T06:56:37.592Z,5.70
2022-12-20T06:57:45.342Z,5.80
2022-12-20T06:58:47.957Z,5.80
2022-12-20T06:59:50.513Z,5.80
2022-12-20T07:00:53.003Z,5.80
2022-12-20T07:01:55.541Z,5.80
2022-12-20T07:02:58.351Z,5.80
2022-12-20T07:04:00.764Z,5.80
2022-12-20T07:05:03.105Z,5.80
2022-12-20T07:06:05.612Z,5.80
2022-12-20T07:07:07.898Z,5.80
2022-12-20T07:08:10.133Z,5.90
2022-12-20T07:09:12.533Z,5.80
2022-12-20T07:10:17.396Z,5.90
2022-12-20T07:11:19.677Z,5.90
2022-12-20T07:12:23.165Z,5.90
2022-12-20T07:13:26.025Z,5.80
2022-12-20T07:14:28.694Z,5.90
2022-12-20T07:15:31.583Z,5.90
2022-12-20T07:16:36.269Z,5.90
2022-12-20T07:17:39.224Z,5.90
2022-12-20T07:18:41.455Z,5.90
2022-12-20T07:19:50.256Z,5.90
2022-12-20T07:20:53.526Z,5.90
2022-12-20T07:21:56.239Z,6.00
2022-12-20T07:22:58.717Z,5.90
2022-12-20T07:24:01.664Z,6.00
2022-12-20T07:25:04.232Z,6.00
2022-12-20T07:26:06.560Z,6.00
2022-12-20T07:27:11.719Z,6.00
2022-12-20T07:28:14.165Z,6.00
2022-12-20T07:29:16.651Z,6.00
2022-12-20T07:30:20.252Z,6.00
2022-12-20T07:31:22.603Z,5.90
2022-12-20T07:32:25.148Z,6.00
2022-12-20T07:33:28.993Z,6.00
2022-12-20T07:34:31.301Z,6.00
2022-12-20T07:35:33.611Z,6.00
2022-12-20T07:36:35.869Z,6.00
2022-12-20T07:37:39.319Z,5.90
2022-12-20T07:38:42.058Z,6.00
2022-12-20T07:39:44.361Z,6.00
2022-12-20T07:40:46.676Z,6.00
2022-12-20T07:41:48.981Z,6.00
2022-12-20T07:42:52.474Z,6.00
2022-12-20T07:43:54.913Z,6.00
2022-12-20T07:44:57.166Z,6.00
2022-12-20T07:46:00.273Z,6.00
2022-12-20T07:47:02.803Z,6.00
2022-12-20T07:48:12.348Z,6.00
2022-12-20T07:49:17.609Z,6.00
2022-12-20T07:50:19.855Z,6.00
2022-12-20T07:51:35.064Z,6.00
2022-12-20T07:52:37.979Z,6.00
2022-12-20T07:53:45.108Z,6.00
2022-12-20T07:54:54.608Z,6.00
2022-12-20T07:55:59.001Z,6.00
2022-12-20T07:57:07.254Z,6.00
2022-12-20T07:58:11.840Z,6.00
2022-12-20T07:59:18.297Z,6.00
2022-12-20T08:00:20.829Z,6.00
2022-12-20T08:01:23.358Z,6.00
2022-12-20T08:02:35.691Z,6.00
2022-12-20T08:03:46.021Z,6.00
2022-12-20T08:04:49.295Z,6.00
2022-12-20T08:05:55.610Z,6.00
2022-12-20T08:07:00.121Z,6.00
2022-12-20T08:08:04.020Z,6.00
2022-12-20T08:09:06.754Z,6.00
2022-12-20T08:10:11.420Z,6.00
2022-12-20T08:11:14.855Z,6.00
2022-12-20T08:12:19.128Z,6.00
2022-12-20T08:13:21.458Z,6.00
2022-12-20T08:14:24.043Z,6.00
2022-12-20T08:15:28.769Z,6.00
2022-12-20T08:16:31.311Z,6.00
2022-12-20T08:17:34.181Z,6.00
2022-12-20T08:18:36.453Z,6.00
2022-12-20T08:19:38.957Z,6.10
2022-12-20T08:20:41.267Z,6.10
2022-12-20T08:21:43.572Z,6.10
2022-12-20T08:22:45.843Z,6.10
2022-12-20T08:23:48.166Z,6.10
2022-12-20T08:24:50.413Z,6.10
2022-12-20T08:25:52.670Z,6.10
2022-12-20T08:26:55.249Z,6.10
2022-12-20T08:27:57.525Z,6.10
2022-12-20T08:28:59.843Z,6.10
2022-12-20T08:30:02.150Z,6.10
2022-12-20T08:31:06.598Z,6.10
2022-12-20T08:32:09.041Z,6.10
2022-12-20T08:33:11.330Z,6.10
2022-12-20T08:34:14.164Z,6.10
2022-12-20T08:35:16.460Z,6.10
2022-12-20T08:36:18.710Z,6.10
2022-12-20T08:37:21.329Z,6.10
2022-12-20T08:38:23.542Z,6.10
2022-12-20T08:39:25.804Z,6.20
2022-12-20T08:40:28.037Z,6.20
2022-12-20T08:41:30.306Z,6.20
2022-12-20T08:42:33.981Z,6.20
2022-12-20T08:43:36.811Z,6.20
2022-12-20T08:44:39.099Z,6.20
2022-12-20T08:45:41.453Z,6.20
2022-12-20T08:46:43.948Z,6.20
2022-12-20T08:47:46.269Z,6.20
2022-12-20T08:48:48.546Z,6.20
2022-12-20T08:49:50.798Z,6.20
2022-12-20T08:50:57.173Z,6.20
2022-12-20T08:51:59.558Z,6.20
2022-12-20T08:53:01.877Z,6.20
2022-12-20T08:54:04.213Z,6.20
2022-12-20T08:55:06.896Z,6.20
2022-12-20T08:56:15.232Z,6.20
2022-12-20T08:57:17.516Z,6.20
2022-12-20T08:58:21.215Z,6.20
2022-12-20T08:59:24.177Z,6.30
2022-12-20T09:00:26.676Z,6.30
2022-12-20T09:01:30.550Z,6.30
2022-12-20T09:02:33.086Z,6.30
2022-12-20T09:03:37.006Z,6.30
2022-12-20T09:04:39.355Z,6.30
2022-12-20T09:05:47.637Z,6.30
2022-12-20T09:06:49.883Z,6.30
2022-12-20T09:07:52.243Z,6.20
2022-12-20T09:08:55.736Z,6.20
2022-12-20T09:09:57.947Z,6.20
2022-12-20T09:11:05.903Z,6.20
2022-12-20T09:12:08.170Z,6.20
2022-12-20T09:13:11.814Z,6.10
2022-12-20T09:14:14.103Z,6.10
2022-12-20T09:15:16.565Z,6.10
2022-12-20T09:16:21.736Z,6.10
2022-12-20T09:17:24.050Z,6.10
2022-12-20T09:18:26.485Z,6.10
2022-12-20T09:19:28.787Z,6.10
2022-12-20T09:20:32.861Z,6.10
2022-12-20T09:21:35.846Z,6.10
2022-12-20T09:22:38.181Z,6.10
2022-12-20T09:23:40.881Z,6.10
2022-12-20T09:24:43.233Z,6.20
2022-12-20T09:25:50.255Z,6.20
2022-12-20T09:26:55.980Z,6.10
2022-12-20T09:27:58.365Z,6.20
2022-12-20T09:29:02.161Z,6.20
2022-12-20T09:30:05.743Z,6.10
2022-12-20T09:31:11.603Z,6.10
2022-12-20T09:32:14.429Z,6.20
2022-12-20T09:33:16.806Z,6.20
2022-12-20T09:34:19.194Z,6.10
2022-12-20T09:35:23.395Z,6.20
2022-12-20T09:36:27.855Z,6.20
2022-12-20T09:37:32.276Z,6.30
2022-12-20T09:38:34.715Z,6.30
2022-12-20T09:39:37.685Z,6.30
2022-12-20T09:40:45.903Z,6.30
2022-12-20T09:41:48.345Z,6.30
2022-12-20T09:42:51.535Z,6.30
2022-12-20T09:43:54.229Z,6.40
2022-12-20T09:45:10.185Z,6.40
2022-12-20T09:46:15.362Z,6.40
2022-12-20T09:47:21.374Z,6.40
2022-12-20T09:48:28.986Z,6.50
2022-12-20T09:49:36.219Z,6.50
2022-12-20T09:50:56.018Z,6.50
2022-12-20T09:52:04.308Z,6.60
2022-12-20T09:53:18.774Z,6.60
2022-12-20T09:54:49.970Z,6.60
2022-12-20T09:55:59.935Z,6.70
2022-12-20T09:57:24.047Z,6.70
2022-12-20T09:59:18.646Z,6.80
2022-12-20T10:00:21.438Z,6.80
2022-12-20T10:01:28.861Z,6.90
2022-12-20T10:02:57.287Z,7.00
2022-12-20T10:04:02.495Z,7.00
2022-12-20T10:05:05.467Z,7.10
2022-12-20T10:07:00.951Z,7.10
2022-12-20T10:08:42.762Z,7.20
2022-12-20T10:10:09.895Z,7.40
2022-12-20T10:11:39.543Z,7.40
2022-12-20T10:13:00.357Z,7.40
2022-12-20T10:14:31.610Z,7.50
2022-12-20T10:15:39.206Z,7.60
2022-12-20T10:17:05.783Z,7.60
2022-12-20T10:18:32.832Z,7.60
2022-12-20T10:19:46.699Z,7.70
2022-12-20T10:20:51.928Z,7.70
2022-12-20T10:22:16.380Z,7.70
2022-12-20T10:24:01.666Z,7.70
2022-12-20T10:25:20.168Z,7.70
2022-12-20T10:26:23.353Z,7.70
2022-12-20T10:27:26.149Z,7.70
2022-12-20T10:28:31.633Z,7.80
2022-12-20T10:29:34.242Z,7.80
2022-12-20T10:30:36.598Z,7.80
2022-12-20T10:31:39.496Z,7.80
2022-12-20T10:32:46.121Z,7.80
2022-12-20T10:33:48.525Z,7.80
2022-12-20T10:34:57.596Z,7.90
2022-12-20T10:36:19.465Z,7.80
2022-12-20T10:37:21.821Z,7.80
2022-12-20T10:38:24.740Z,7.90
2022-12-20T10:39:42.615Z,7.80
2022-12-20T10:41:20.775Z,7.80
2022-12-20T10:42:42.457Z,7.80
2022-12-20T10:43:48.811Z,7.90
2022-12-20T10:44:51.632Z,7.80
2022-12-20T10:46:03.959Z,7.80
2022-12-20T10:47:35.743Z,7.80
2022-12-20T10:48:40.646Z,7.80
2022-12-20T10:49:43.118Z,7.80
2022-12-20T10:51:18.322Z,7.80
2022-12-20T10:52:20.761Z,7.80
2022-12-20T10:53:25.566Z,7.80
2022-12-20T10:54:37.172Z,7.80
2022-12-20T10:55:42.031Z,7.80
2022-12-20T10:56:58.253Z,7.90
2022-12-20T10:58:10.710Z,7.90
2022-12-20T10:59:18.895Z,7.90
2022-12-20T11:00:30.778Z,8.00
2022-12-20T11:01:36.695Z,8.00
2022-12-20T11:02:42.812Z,8.10
2022-12-20T11:03:56.739Z,8.10
2022-12-20T11:05:20.709Z,8.20
2022-12-20T11:06:29.697Z,8.20
2022-12-20T11:07:34.332Z,8.30
2022-12-20T11:08:44.444Z,8.30
2022-12-20T11:09:56.191Z,8.30
2022-12-20T11:11:24.196Z,8.30
2022-12-20T11:12:26.667Z,8.40
2022-12-20T11:13:29.671Z,8.40
2022-12-20T11:14:38.711Z,8.30
2022-12-20T11:15:50.308Z,8.30
2022-12-20T11:16:55.460Z,8.30
2022-12-20T11:18:16.555Z,8.30
2022-12-20T11:19:34.307Z,8.30
2022-12-20T11:21:17.165Z,8.30
2022-12-20T11:22:42.764Z,8.30
2022-12-20T11:23:55.600Z,8.20
2022-12-20T11:25:19.122Z,8.20
2022-12-20T11:26:27.283Z,8.20
2022-12-20T11:27:48.614Z,8.20
2022-12-20T11:28:50.977Z,8.20
2022-12-20T11:30:04.992Z,8.20
2022-12-20T11:31:28.784Z,8.20
2022-12-20T11:32:36.604Z,8.10
2022-12-20T11:33:48.834Z,8.20
2022-12-20T11:35:28.517Z,8.10
2022-12-20T11:36:36.751Z,8.10
2022-12-20T11:37:49.552Z,8.10
2022-12-20T11:39:24.763Z,8.10
2022-12-20T11:40:36.337Z,8.00
2022-12-20T11:41:55.708Z,8.10
2022-12-20T11:43:04.084Z,8.10
2022-12-20T11:44:26.694Z,8.10
2022-12-20T11:46:02.947Z,8.10
2022-12-20T11:47:30.400Z,8.10
2022-12-20T11:49:05.761Z,8.10
2022-12-20T11:50:09.085Z,8.20
2022-12-20T11:51:26.625Z,8.20
2022-12-20T11:52:52.359Z,8.20
2022-12-20T11:54:01.860Z,8.30
2022-12-20T11:55:13.422Z,8.30
2022-12-20T11:56:21.533Z,8.30
2022-12-20T11:57:35.177Z,8.30
2022-12-20T11:59:02.374Z,8.30
2022-12-20T12:00:06.632Z,8.30
2022-12-20T12:01:21.631Z,8.30
2022-12-20T12:03:05.912Z,8.30
2022-12-20T12:04:30.781Z,8.20
2022-12-20T12:05:47.225Z,8.20
2022-12-20T12:07:00.030Z,8.20
2022-12-20T12:08:08.398Z,8.20
2022-12-20T12:09:22.353Z,8.20
2022-12-20T12:10:36.180Z,8.10
2022-12-20T12:12:07.284Z,8.20
2022-12-20T12:13:32.502Z,8.10
2022-12-20T12:15:00.868Z,8.20
2022-12-20T12:16:09.699Z,8.20
2022-12-20T12:17:32.343Z,8.20
2022-12-20T12:18:36.629Z,8.20
2022-12-20T12:19:46.491Z,8.20
2022-12-20T12:20:53.589Z,8.20
2022-12-20T12:22:06.801Z,8.10
2022-12-20T12:23:50.431Z,8.10
2022-12-20T12:24:57.754Z,8.10
2022-12-20T12:26:05.212Z,8.00
2022-12-20T12:27:16.346Z,8.00
2022-12-20T12:28:20.997Z,7.90
2022-12-20T12:29:23.601Z,7.90
2022-12-20T12:30:30.024Z,7.90
2022-12-20T12:31:42.162Z,7.90
2022-12-20T12:32:53.775Z,7.90
2022-12-20T12:34:06.970Z,7.90
2022-12-20T12:35:47.292Z,7.90
2022-12-20T12:37:15.334Z,7.90
2022-12-20T12:38:43.678Z,7.90
2022-12-20T12:40:19.339Z,8.00
2022-12-20T12:41:54.922Z,8.00
2022-12-20T12:43:05.822Z,8.00
2022-12-20T12:44:48.420Z,8.00
2022-12-20T12:45:58.356Z,8.10
2022-12-20T12:47:06.667Z,8.10
2022-12-20T12:48:19.322Z,8.10
2022-12-20T12:49:23.956Z,8.10
2022-12-20T12:50:39.106Z,8.10
2022-12-20T12:51:44.432Z,8.10
2022-12-20T12:52:53.079Z,8.10
2022-12-20T12:54:16.692Z,8.10
2022-12-20T12:55:43.057Z,8.10
2022-12-20T12:56:50.073Z,8.20
2022-12-20T12:57:57.398Z,8.20
2022-12-20T12:59:27.221Z,8.20
2022-12-20T13:00:49.468Z,8.20
2022-12-20T13:01:54.080Z,8.20
2022-12-20T13:02:56.781Z,8.20
2022-12-20T13:04:01.820Z,8.10
2022-12-20T13:05:06.710Z,8.10
2022-12-20T13:06:25.245Z,8.10
2022-12-20T13:07:33.499Z,8.20
2022-12-20T13:09:22.567Z,8.10
2022-12-20T13:10:29.583Z,8.10
2022-12-20T13:11:38.436Z,8.10
2022-12-20T13:12:52.868Z,8.10
2022-12-20T13:14:25.450Z,8.10
2022-12-20T13:15:27.695Z,8.10
2022-12-20T13:17:02.679Z,8.10
2022-12-20T13:18:01.910Z,8.10
2022-12-20T13:19:26.140Z,8.00
2022-12-20T13:20:35.940Z,8.00
2022-12-20T13:21:39.192Z,8.00
2022-12-20T13:23:10.703Z,8.00
2022-12-20T13:24:39.063Z,8.00
2022-12-20T13:25:49.489Z,8.00
2022-12-20T13:26:55.382Z,7.90
2022-12-20T13:28:18.955Z,7.90
2022-12-20T13:29:32.730Z,7.80
2022-12-20T13:30:35.060Z,7.80
2022-12-20T13:31:38.374Z,7.80
2022-12-20T13:32:49.434Z,7.80
2022-12-20T13:33:52.029Z,7.80
2022-12-20T13:34:56.922Z,7.70
2022-12-20T13:36:05.392Z,7.80
2022-12-20T13:37:54.364Z,7.80
2022-12-20T13:38:59.672Z,7.80
2022-12-20T13:40:05.131Z,7.70
2022-12-20T13:41:21.919Z,7.70
2022-12-20T13:42:34.220Z,7.70
2022-12-20T13:43:44.187Z,7.70
2022-12-20T13:44:47.823Z,7.70
2022-12-20T13:46:13.685Z,7.70
2022-12-20T13:47:37.706Z,7.70
2022-12-20T13:48:51.560Z,7.70
2022-12-20T13:49:53.891Z,7.70
2022-12-20T13:50:57.524Z,7.70
2022-12-20T13:52:28.671Z,7.60
2022-12-20T13:53:31.409Z,7.60
2022-12-20T13:54:33.700Z,7.60
2022-12-20T13:55:40.245Z,7.60
2022-12-20T13:56:49.429Z,7.60
2022-12-20T13:57:53.030Z,7.60
2022-12-20T13:59:04.199Z,7.60
2022-12-20T14:00:27.945Z,7.50
2022-12-20T14:01:34.759Z,7.50
2022-12-20T14:02:42.412Z,7.50
2022-12-20T14:03:48.149Z,7.50
2022-12-20T14:05:01.810Z,7.40
2022-12-20T14:06:09.617Z,7.40
2022-12-20T14:07:17.791Z,7.40
2022-12-20T14:08:23.394Z,7.40
2022-12-20T14:09:33.944Z,7.40
2022-12-20T14:10:36.835Z,7.40
2022-12-20T14:11:47.487Z,7.40
2022-12-20T14:12:54.197Z,7.30
2022-12-20T14:13:59.029Z,7.30
2022-12-20T14:15:01.370Z,7.30
2022-12-20T14:16:20.244Z,7.20
2022-12-20T14:17:27.231Z,7.30
2022-12-20T14:18:29.517Z,7.20
2022-12-20T14:19:31.782Z,7.20
2022-12-20T14:20:37.011Z,7.20
2022-12-20T14:21:43.894Z,7.20
2022-12-20T14:23:13.606Z,7.20
2022-12-20T14:24:20.074Z,7.20
2022-12-20T14:25:47.009Z,7.20
2022-12-20T14:26:53.828Z,7.10
2022-12-20T14:27:56.910Z,7.10
2022-12-20T14:29:01.522Z,7.10
2022-12-20T14:30:05.818Z,7.10
2022-12-20T14:31:30.000Z,7.10
2022-12-20T14:32:32.592Z,7.10
2022-12-20T14:33:40.207Z,7.00
2022-12-20T14:34:43.567Z,7.00
2022-12-20T14:35:51.081Z,7.00
2022-12-20T14:37:30.287Z,7.00
2022-12-20T14:38:32.973Z,7.00
2022-12-20T14:39:36.194Z,7.00
2022-12-20T14:40:42.932Z,7.00
2022-12-20T14:41:45.218Z,7.00
2022-12-20T14:42:47.481Z,7.00
2022-12-20T14:43:56.835Z,7.00
2022-12-20T14:45:08.894Z,7.00
2022-12-20T14:46:19.210Z,7.00
2022-12-20T14:47:28.676Z,7.00
2022-12-20T14:48:31.027Z,6.90
2022-12-20T14:49:36.562Z,7.00
2022-12-20T14:50:42.835Z,6.90
2022-12-20T14:51:46.630Z,6.90
2022-12-20T14:52:49.010Z,6.90
2022-12-20T14:53:51.957Z,6.90
2022-12-20T14:55:08.477Z,6.90
2022-12-20T14:56:19.471Z,6.90
2022-12-20T14:57:37.746Z,6.90
2022-12-20T14:58:40.839Z,6.90
2022-12-20T14:59:59.633Z,6.90
2022-12-20T15:01:20.534Z,6.80
2022-12-20T15:02:40.746Z,6.80
2022-12-20T15:03:55.821Z,6.90